Aegean Viii — SXKO — position and weather

sailwx.info

Track history (hours):
 
Tides and Currents Weather Stations Pressure Air Temp Water Temp Dewpoint Dewpoint Depression Visibility Wind Speed Wind Dir Waves Ship Positions

Aegean Viii

Last reported at 2015-Apr-01 12:33 UTC. Time now 2015-Apr-01 13:15 UTC.
Position N 38°02' E 023°35'.

Length 75 m; draft 4.5 m.

Type: Tanker. MMSI: 240732000.

Date/timePositionNaut miles runAvg speedWind from/ knotsBaromVisibWave heightAir tempDewpointWater temp
2015-Apr-01 12:33N 38°02' E 023°35'1 0.5
2015-Apr-01 11:27N 38°01' E 023°35'0 0.0
2015-Apr-01 10:32N 38°01' E 023°35'3 3.5
2015-Apr-01 09:33N 37°58' E 023°33'2 2.4
2015-Apr-01 08:33N 37°57' E 023°36'0 0.0
2015-Apr-01 07:34N 37°57' E 023°36'0 0.0
2015-Apr-01 06:34N 37°57' E 023°36'0 0.0
2015-Apr-01 05:33N 37°57' E 023°36'1 0.9
2015-Apr-01 04:34N 37°57' E 023°35'0 0.4
2015-Apr-01 03:34N 37°57' E 023°34'0 0.0
2015-Apr-01 02:34N 37°57' E 023°34'0 0.0
2015-Apr-01 01:33N 37°57' E 023°34'0 0.0
2015-Apr-01 00:33N 37°57' E 023°34'0 0.0
2015-Mar-31 23:34N 37°57' E 023°34'0 0.0
2015-Mar-31 22:33N 37°57' E 023°34'0 0.2
2015-Mar-31 21:34N 37°57' E 023°34'2 1.6
2015-Mar-31 20:33N 37°58' E 023°36'0 0.0
2015-Mar-31 19:34N 37°58' E 023°36'0 0.0
2015-Mar-31 18:34N 37°58' E 023°36'1 0.9
2015-Mar-31 17:33N 37°57' E 023°36'2 2.1
2015-Mar-31 16:33N 37°58' E 023°33'5 4.7
2015-Mar-31 15:33N 38°02' E 023°32'0 0.0
2015-Mar-31 14:33N 38°02' E 023°32'0 0.0
2015-Mar-31 13:33N 38°02' E 023°32'0 0.0
2015-Mar-31 09:11N 38°02' E 023°32'0 0.0
2015-Mar-31 08:33N 38°02' E 023°32'0 0.0
2015-Mar-31 07:33N 38°02' E 023°32'0 0.0
2015-Mar-31 06:33N 38°02' E 023°32'5 4.6
2015-Mar-31 05:33N 37°58' E 023°33'1 1.1
2015-Mar-31 04:33N 37°57' E 023°34'0 0.0
2015-Mar-31 03:33N 37°57' E 023°34'0 0.0
2015-Mar-31 02:33N 37°57' E 023°34'0 0.0
2015-Mar-31 01:34N 37°57' E 023°34'0 0.0
2015-Mar-31 00:33N 37°57' E 023°34'0 0.0
2015-Mar-30 23:33N 37°57' E 023°34'0 0.0
2015-Mar-30 22:33N 37°57' E 023°34'0 0.0
2015-Mar-30 21:33N 37°57' E 023°34'3 2.8
2015-Mar-30 20:33N 37°55' E 023°34'1 1.3
2015-Mar-30 19:33N 37°53' E 023°33'0 0.1
2015-Mar-30 18:33N 37°53' E 023°33'0 0.1
2015-Mar-30 17:34N 37°54' E 023°33'0 0.0
2015-Mar-30 16:33N 37°54' E 023°33'7 6.6
2015-Mar-30 15:33N 38°00' E 023°33'2 2.4
2015-Mar-30 14:33N 38°02' E 023°36'0 0.0
2015-Mar-30 13:34N 38°02' E 023°36'0 0.0
2015-Mar-30 12:33N 38°02' E 023°36'0 0.0
2015-Mar-30 11:26N 38°02' E 023°36'0 0.0
2015-Mar-30 10:32N 38°02' E 023°36'0 0.0
2015-Mar-30 09:19N 38°02' E 023°36'0 0.0
2015-Mar-30 08:33N 38°02' E 023°36'1 0.8
2015-Mar-30 07:33N 38°02' E 023°35'2 2.2
2015-Mar-30 06:33N 38°02' E 023°32'0 0.0
2015-Mar-30 05:33N 38°02' E 023°32'0 0.0
2015-Mar-29 14:30N 38°02' E 023°32'5 5.4
2015-Mar-29 13:33N 37°57' E 023°33'2 2.3
2015-Mar-29 12:33N 37°58' E 023°36'0 0.2
2015-Mar-29 11:33N 37°57' E 023°36'1 1.4
2015-Mar-29 10:33N 37°57' E 023°34'0 0.0
2015-Mar-29 09:33N 37°57' E 023°34'5 5.2
2015-Mar-29 08:33N 38°02' E 023°32'0 0.3
2015-Mar-29 07:32N 38°02' E 023°32'0 0.0
2015-Mar-29 06:28N 38°02' E 023°32'0 0.0
2015-Mar-29 05:33N 38°02' E 023°32'0 0.0
2015-Mar-28 15:19N 38°02' E 023°32'2 2.9
2015-Mar-28 14:33N 38°00' E 023°33'4 3.8
2015-Mar-28 13:34N 37°57' E 023°36'0 0.0
2015-Mar-28 12:33N 37°57' E 023°36'0 0.0
2015-Mar-28 11:33N 37°57' E 023°36'0 0.0
2015-Mar-28 10:33N 37°57' E 023°36'0 0.0
2015-Mar-28 09:33N 37°57' E 023°36'0 0.1
2015-Mar-28 08:33N 37°57' E 023°36'0 0.1
2015-Mar-28 07:33N 37°57' E 023°36'0 0.0
2015-Mar-28 06:33N 37°57' E 023°36'2 1.8
2015-Mar-28 05:33N 37°57' E 023°33'5 5.1
2015-Mar-28 04:33N 38°02' E 023°32'0 0.0
2015-Mar-28 03:33N 38°02' E 023°32'0 0.0
2015-Mar-28 02:33N 38°02' E 023°32'1 0.1
2015-Mar-27 16:29N 38°02' E 023°33'2 2.3
2015-Mar-27 15:33N 38°02' E 023°36'0 0.3
2015-Mar-27 14:33N 38°02' E 023°35'0 0.4
2015-Mar-27 13:33N 38°02' E 023°35'0 0.0
2015-Mar-27 12:33N 38°02' E 023°35'0 0.0
2015-Mar-27 11:33N 38°02' E 023°35'2 2.2
2015-Mar-27 10:33N 38°02' E 023°32'0 0.0
2015-Mar-27 09:33N 38°02' E 023°32'0 0.0
2015-Mar-27 08:33N 38°02' E 023°32'0 0.0
2015-Mar-27 07:30N 38°02' E 023°32'0 0.0
2015-Mar-27 06:33N 38°02' E 023°32'0 0.0
2015-Mar-27 05:30N 38°02' E 023°32'0 0.0
2015-Mar-27 04:25N 38°02' E 023°32'0 0.0
2015-Mar-27 03:21N 38°02' E 023°32'0 0.0
2015-Mar-27 02:33N 38°02' E 023°32'0 0.0
2015-Mar-27 01:33N 38°02' E 023°32'0 0.0
2015-Mar-27 00:24N 38°02' E 023°32'0 0.0
2015-Mar-26 23:31N 38°02' E 023°32'0 0.0
2015-Mar-26 22:33N 38°02' E 023°32'0 0.0
2015-Mar-26 21:33N 38°02' E 023°32'0 0.0
2015-Mar-26 20:31N 38°02' E 023°32'1 1.0
2015-Mar-26 19:31N 38°02' E 023°31'0 0.0
2015-Mar-26 18:33N 38°02' E 023°31'0 0.0
2015-Mar-26 16:32N 38°02' E 023°31'0 0.0
2015-Mar-26 14:33N 38°02' E 023°31'1 0.8
2015-Mar-26 13:30N 38°02' E 023°32'0 0.1
2015-Mar-26 12:06N 38°02' E 023°32'0 0.0
2015-Mar-26 11:29N 38°02' E 023°32'6 1.5
2015-Mar-26 07:33N 37°58' E 023°36'0 0.0
2015-Mar-26 06:33N 37°58' E 023°36'2 2.5
2015-Mar-26 05:33N 37°57' E 023°33'5 4.8
2015-Mar-26 04:30N 38°02' E 023°32'0 0.0
2015-Mar-26 03:26N 38°02' E 023°32'0 0.0
2015-Mar-24 20:09N 38°02' E 023°32'2 0.3
2015-Mar-24 11:31N 38°01' E 023°35'0 0.0
2015-Mar-24 09:26N 38°01' E 023°35'4 4.4
2015-Mar-24 08:33N 37°58' E 023°36'0 0.0
2015-Mar-24 07:33N 37°58' E 023°36'0 0.0
2015-Mar-24 06:32N 37°58' E 023°36'2 2.4
2015-Mar-24 05:33N 37°57' E 023°33'5 5.0
2015-Mar-24 04:33N 38°02' E 023°32'0 0.0
2015-Mar-24 03:33N 38°02' E 023°32'0 0.0
2015-Mar-24 02:33N 38°02' E 023°32'0 0.0
2015-Mar-24 01:30N 38°02' E 023°32'0 0.0
2015-Mar-23 12:33N 38°02' E 023°32'2 0.3
2015-Mar-23 05:20N 38°01' E 023°35'3 0.2
2015-Mar-22 13:21N 38°02' E 023°32'  
Track history (hours):
 
Tides and Currents Weather Stations Pressure Air Temp Water Temp Dewpoint Dewpoint Depression Visibility Wind Speed Wind Dir Waves Ship Positions

Aegean Viii

Last reported at 2015-Apr-01 12:33 UTC. Time now 2015-Apr-01 13:15 UTC.
Position N 38°02' E 023°35'.

Length 75 m; draft 4.5 m.

Type: Tanker. MMSI: 240732000.

Date/timePositionNaut miles runAvg speedWind from/ knotsBaromVisibWave heightAir tempDewpointWater temp
2015-Apr-01 12:33N 38°02' E 023°35'1 0.5
2015-Apr-01 11:27N 38°01' E 023°35'0 0.0
2015-Apr-01 10:32N 38°01' E 023°35'3 3.5
2015-Apr-01 09:33N 37°58' E 023°33'2 2.4
2015-Apr-01 08:33N 37°57' E 023°36'0 0.0
2015-Apr-01 07:34N 37°57' E 023°36'0 0.0
2015-Apr-01 06:34N 37°57' E 023°36'0 0.0
2015-Apr-01 05:33N 37°57' E 023°36'1 0.9
2015-Apr-01 04:34N 37°57' E 023°35'0 0.4
2015-Apr-01 03:34N 37°57' E 023°34'0 0.0
2015-Apr-01 02:34N 37°57' E 023°34'0 0.0
2015-Apr-01 01:33N 37°57' E 023°34'0 0.0
2015-Apr-01 00:33N 37°57' E 023°34'0 0.0
2015-Mar-31 23:34N 37°57' E 023°34'0 0.0
2015-Mar-31 22:33N 37°57' E 023°34'0 0.2
2015-Mar-31 21:34N 37°57' E 023°34'2 1.6
2015-Mar-31 20:33N 37°58' E 023°36'0 0.0
2015-Mar-31 19:34N 37°58' E 023°36'0 0.0
2015-Mar-31 18:34N 37°58' E 023°36'1 0.9
2015-Mar-31 17:33N 37°57' E 023°36'2 2.1
2015-Mar-31 16:33N 37°58' E 023°33'5 4.7
2015-Mar-31 15:33N 38°02' E 023°32'0 0.0
2015-Mar-31 14:33N 38°02' E 023°32'0 0.0
2015-Mar-31 13:33N 38°02' E 023°32'0 0.0
2015-Mar-31 09:11N 38°02' E 023°32'0 0.0
2015-Mar-31 08:33N 38°02' E 023°32'0 0.0
2015-Mar-31 07:33N 38°02' E 023°32'0 0.0
2015-Mar-31 06:33N 38°02' E 023°32'5 4.6
2015-Mar-31 05:33N 37°58' E 023°33'1 1.1
2015-Mar-31 04:33N 37°57' E 023°34'0 0.0
2015-Mar-31 03:33N 37°57' E 023°34'0 0.0
2015-Mar-31 02:33N 37°57' E 023°34'0 0.0
2015-Mar-31 01:34N 37°57' E 023°34'0 0.0
2015-Mar-31 00:33N 37°57' E 023°34'0 0.0
2015-Mar-30 23:33N 37°57' E 023°34'0 0.0
2015-Mar-30 22:33N 37°57' E 023°34'0 0.0
2015-Mar-30 21:33N 37°57' E 023°34'3 2.8
2015-Mar-30 20:33N 37°55' E 023°34'1 1.3
2015-Mar-30 19:33N 37°53' E 023°33'0 0.1
2015-Mar-30 18:33N 37°53' E 023°33'0 0.1
2015-Mar-30 17:34N 37°54' E 023°33'0 0.0
2015-Mar-30 16:33N 37°54' E 023°33'7 6.6
2015-Mar-30 15:33N 38°00' E 023°33'2 2.4
2015-Mar-30 14:33N 38°02' E 023°36'0 0.0
2015-Mar-30 13:34N 38°02' E 023°36'0 0.0
2015-Mar-30 12:33N 38°02' E 023°36'0 0.0
2015-Mar-30 11:26N 38°02' E 023°36'0 0.0
2015-Mar-30 10:32N 38°02' E 023°36'0 0.0
2015-Mar-30 09:19N 38°02' E 023°36'0 0.0
2015-Mar-30 08:33N 38°02' E 023°36'1 0.8
2015-Mar-30 07:33N 38°02' E 023°35'2 2.2
2015-Mar-30 06:33N 38°02' E 023°32'0 0.0
2015-Mar-30 05:33N 38°02' E 023°32'0 0.0
2015-Mar-29 14:30N 38°02' E 023°32'5 5.4
2015-Mar-29 13:33N 37°57' E 023°33'2 2.3
2015-Mar-29 12:33N 37°58' E 023°36'0 0.2
2015-Mar-29 11:33N 37°57' E 023°36'1 1.4
2015-Mar-29 10:33N 37°57' E 023°34'0 0.0
2015-Mar-29 09:33N 37°57' E 023°34'5 5.2
2015-Mar-29 08:33N 38°02' E 023°32'0 0.3
2015-Mar-29 07:32N 38°02' E 023°32'0 0.0
2015-Mar-29 06:28N 38°02' E 023°32'0 0.0
2015-Mar-29 05:33N 38°02' E 023°32'0 0.0
2015-Mar-28 15:19N 38°02' E 023°32'2 2.9
2015-Mar-28 14:33N 38°00' E 023°33'4 3.8
2015-Mar-28 13:34N 37°57' E 023°36'0 0.0
2015-Mar-28 12:33N 37°57' E 023°36'0 0.0
2015-Mar-28 11:33N 37°57' E 023°36'0 0.0
2015-Mar-28 10:33N 37°57' E 023°36'0 0.0
2015-Mar-28 09:33N 37°57' E 023°36'0 0.1
2015-Mar-28 08:33N 37°57' E 023°36'0 0.1
2015-Mar-28 07:33N 37°57' E 023°36'0 0.0
2015-Mar-28 06:33N 37°57' E 023°36'2 1.8
2015-Mar-28 05:33N 37°57' E 023°33'5 5.1
2015-Mar-28 04:33N 38°02' E 023°32'0 0.0
2015-Mar-28 03:33N 38°02' E 023°32'0 0.0
2015-Mar-28 02:33N 38°02' E 023°32'1 0.1
2015-Mar-27 16:29N 38°02' E 023°33'2 2.3
2015-Mar-27 15:33N 38°02' E 023°36'0 0.3
2015-Mar-27 14:33N 38°02' E 023°35'0 0.4
2015-Mar-27 13:33N 38°02' E 023°35'0 0.0
2015-Mar-27 12:33N 38°02' E 023°35'0 0.0
2015-Mar-27 11:33N 38°02' E 023°35'2 2.2
2015-Mar-27 10:33N 38°02' E 023°32'0 0.0
2015-Mar-27 09:33N 38°02' E 023°32'0 0.0
2015-Mar-27 08:33N 38°02' E 023°32'0 0.0
2015-Mar-27 07:30N 38°02' E 023°32'0 0.0
2015-Mar-27 06:33N 38°02' E 023°32'0 0.0
2015-Mar-27 05:30N 38°02' E 023°32'0 0.0
2015-Mar-27 04:25N 38°02' E 023°32'0 0.0
2015-Mar-27 03:21N 38°02' E 023°32'0 0.0
2015-Mar-27 02:33N 38°02' E 023°32'0 0.0
2015-Mar-27 01:33N 38°02' E 023°32'0 0.0
2015-Mar-27 00:24N 38°02' E 023°32'0 0.0
2015-Mar-26 23:31N 38°02' E 023°32'0 0.0
2015-Mar-26 22:33N 38°02' E 023°32'0 0.0
2015-Mar-26 21:33N 38°02' E 023°32'0 0.0
2015-Mar-26 20:31N 38°02' E 023°32'1 1.0
2015-Mar-26 19:31N 38°02' E 023°31'0 0.0
2015-Mar-26 18:33N 38°02' E 023°31'0 0.0
2015-Mar-26 16:32N 38°02' E 023°31'0 0.0
2015-Mar-26 14:33N 38°02' E 023°31'1 0.8
2015-Mar-26 13:30N 38°02' E 023°32'0 0.1
2015-Mar-26 12:06N 38°02' E 023°32'0 0.0
2015-Mar-26 11:29N 38°02' E 023°32'6 1.5
2015-Mar-26 07:33N 37°58' E 023°36'0 0.0
2015-Mar-26 06:33N 37°58' E 023°36'2 2.5
2015-Mar-26 05:33N 37°57' E 023°33'5 4.8
2015-Mar-26 04:30N 38°02' E 023°32'0 0.0
2015-Mar-26 03:26N 38°02' E 023°32'0 0.0
2015-Mar-24 20:09N 38°02' E 023°32'2 0.3
2015-Mar-24 11:31N 38°01' E 023°35'0 0.0
2015-Mar-24 09:26N 38°01' E 023°35'4 4.4
2015-Mar-24 08:33N 37°58' E 023°36'0 0.0
2015-Mar-24 07:33N 37°58' E 023°36'0 0.0
2015-Mar-24 06:32N 37°58' E 023°36'2 2.4
2015-Mar-24 05:33N 37°57' E 023°33'5 5.0
2015-Mar-24 04:33N 38°02' E 023°32'0 0.0
2015-Mar-24 03:33N 38°02' E 023°32'0 0.0
2015-Mar-24 02:33N 38°02' E 023°32'0 0.0
2015-Mar-24 01:30N 38°02' E 023°32'0 0.0
2015-Mar-23 12:33N 38°02' E 023°32'2 0.3
2015-Mar-23 05:20N 38°01' E 023°35'3 0.2
2015-Mar-22 13:21N 38°02' E 023°32'  

Dump ship's entire track history